Nearby METAR Reports

 

KSJC - San Jose, California, USA
Distance from station: NE 14km
Updated: 03/03/2021 06:53
Mostly cloudy
Mostly cloudy
 Wind from calm
Wind: Calm
Temperature: 13°C
Dew Point: 6°C
Humidity: 63%
Barometer: 1010.5 hPa
Clouds: Mostly cloudy
Visibility: 16 km
Cloud details: Few Clouds 1676 m
Partly cloudy 3048 m
Mostly cloudy 4572 m
2021/03/03 04:53 KSJC 030453Z 00000KT 10SM FEW055 SCT100 BKN150 13/06 A2984 RMK AO2 SLP103 T01280056
KNUQ - Moffett Nas/Mtn, California, USA
Distance from station: N 14km
Updated: 03/03/2021 07:30
Clear
Clear
 Wind from calm
Wind: Calm
Temperature: 13°C
Dew Point: 7°C
Humidity: 67%
Barometer: 1010.5 hPa
Clouds: Clear
Visibility: 16 km
2021/03/03 05:30 KNUQ 030530Z AUTO 00000KT 10SM CLR 13/07 A2984 RMK AO2
 
KPAO - Palo Alto, California, USA
Distance from station: NNW 23km
Updated: 03/03/2021 06:47
Overcast
Overcast
 Wind from NW
Wind: NW 7 km/h
Temperature: 11°C
Dew Point: 7°C
Humidity: 77%
Barometer: 1010.5 hPa
Clouds: Overcast
Visibility: 16 km
Cloud details: Overcast 3048 m
2021/03/03 04:47 KPAO 030447Z 31004KT 10SM OVC100 11/07 A2984 RMK LAST
KRHV - San Jose/Reid, California, USA
Distance from station: ENE 19km
Updated: 03/03/2021 06:50
Mostly cloudy
Mostly cloudy
 Wind from calm
Wind: Calm
Temperature: 13°C
Dew Point: 7°C
Humidity: 67%
Barometer: 1010.5 hPa
Clouds: Mostly cloudy
Visibility: 16 km
Cloud details: Mostly cloudy 3658 m
2021/03/03 04:50 KRHV 030450Z 00000KT 10SM BKN120 13/07 A2984
 
KOAK - Oakland, California, USA
Distance from station: NNW 50km
Updated: 03/03/2021 06:53
Overcast
Overcast
 Wind from NNW
Wind: NNW 7 km/h
Temperature: 13°C
Dew Point: 6°C
Humidity: 63%
Barometer: 1010.8 hPa
Clouds: Overcast
Visibility: 16 km
Cloud details: Mostly cloudy 5486 m
Overcast 6096 m
2021/03/03 04:53 KOAK 030453Z 33004KT 10SM BKN180 OVC200 13/06 A2985 RMK AO2 SLP108 T01330056 $
KSQL - San Carlos Airpo, California, USA
Distance from station: NW 34km
Updated: 03/03/2021 07:35
Clear
Clear
 Wind from calm
Wind: Calm
Temperature: 12°C
Dew Point: 8°C
Humidity: 77%
Barometer: 1010.8 hPa
Clouds: Clear
Visibility: 16 km
2021/03/03 05:35 KSQL 030535Z AUTO 00000KT 10SM CLR 12/08 A2985 RMK AO2
 
KSFO - San Francisco, California, USA
Distance from station: NW 49km
Updated: 03/03/2021 06:56
Overcast
Overcast
 Wind from WNW
Wind: WNW 26 km/h
Temperature: 12°C
Dew Point: 4°C
Humidity: 58%
Barometer: 1010.2 hPa
Clouds: Overcast
Visibility: 16 km
Cloud details: Few Clouds 5486 m
Overcast 6096 m
2021/03/03 04:56 KSFO 030456Z 29014KT 10SM FEW180 OVC200 12/04 A2983 RMK AO2 SLP103 T01220044
KE16 - San Martin, California, USA
Distance from station: ESE 43km
Updated: 03/03/2021 07:35
Few Clouds
Few Clouds
 Wind from calm
Wind: Calm
Temperature: 10°C
Dew Point: 4°C
Humidity: 67%
Barometer: 1010.5 hPa
Clouds: Few Clouds
Visibility: 16 km
Cloud details: Few Clouds 579 m
2021/03/03 05:35 KE16 030535Z AUTO 00000KT 10SM FEW019 10/04 A2984 RMK AO2 PWINO PNO
 
KWVI - Watsonville, California, USA
Distance from station: SSE 44km
Updated: 03/03/2021 06:53
Clear
Clear
 Wind from NW
Wind: NW 7 km/h
Temperature: 10°C
Wind Chill: 9°C
Dew Point: 5°C
Humidity: 71%
Barometer: 1010.5 hPa
Clouds: Clear
Visibility: 16 km
2021/03/03 04:53 KWVI 030453Z AUTO 32004KT 10SM CLR 10/05 A2984 RMK AO2 SLP105 T01000050
KHAF - Half Moon Bay, California, USA
Distance from station: WNW 50km
Updated: 03/03/2021 07:35
Partly cloudy
Partly cloudy
 Wind from calm
Wind: Calm
Temperature: 8°C
Dew Point: 5°C
Humidity: 82%
Barometer: 1010.8 hPa
Clouds: Partly cloudy
Visibility: 13 km
Cloud details: Partly cloudy 91 m
2021/03/03 05:35 KHAF 030535Z AUTO 00000KT 8SM SCT003 08/05 A2985 RMK AO2
 
KHWD - Hayward, California, USA
Distance from station: N 44km
Updated: 03/03/2021 06:54
Clear
Clear
 Wind from NW
Wind: NW 6 km/h
Temperature: 12°C
Dew Point: 6°C
Humidity: 67%
Barometer: 1010.2 hPa
Clouds: Clear
Visibility: 16 km
2021/03/03 04:54 KHWD 030454Z 32003KT 10SM CLR 12/06 A2983 RMK AO2 SLP110 T01170056
KLVK - Livermore, California, USA
Distance from station: NNE 51km
Updated: 03/03/2021 06:53
Clear
Clear
 Wind from NNE
Wind: NNE 6 km/h
Temperature: 11°C
Dew Point: 0°C
Humidity: 47%
Barometer: 1009.8 hPa
Clouds: Clear
Visibility: 16 km
2021/03/03 04:53 KLVK 030453Z 03003KT 10SM CLR 11/00 A2982 RMK AO2 SLP097 T01110000